createdAt,value
2019-01-31T00:03:01.171Z,26.83
2019-01-31T00:08:27.492Z,26.37
2019-01-31T00:13:39.945Z,27.17
2019-01-31T00:18:58.400Z,27.30
2019-01-31T00:24:09.704Z,26.23
2019-01-31T00:29:14.632Z,26.33
2019-01-31T00:34:22.539Z,25.40
2019-01-31T00:39:41.418Z,24.50
2019-01-31T00:45:05.392Z,25.70
2019-01-31T00:50:32.990Z,23.80
2019-01-31T00:55:33.281Z,24.77
2019-01-31T01:00:49.229Z,22.47
2019-01-31T01:06:09.279Z,25.80
2019-01-31T01:11:36.952Z,26.27
2019-01-31T01:16:36.655Z,24.10
2019-01-31T01:21:42.147Z,24.30
2019-01-31T01:26:47.653Z,25.33
2019-01-31T01:31:50.020Z,24.20
2019-01-31T01:37:01.942Z,26.67
2019-01-31T01:42:10.535Z,22.87
2019-01-31T01:47:16.114Z,20.43
2019-01-31T01:52:43.098Z,22.37
2019-01-31T01:58:00.807Z,23.90
2019-01-31T02:03:17.407Z,22.40
2019-01-31T02:08:26.399Z,23.70
2019-01-31T02:13:31.864Z,23.23
2019-01-31T02:18:40.092Z,21.13
2019-01-31T02:23:46.384Z,22.50
2019-01-31T02:29:16.437Z,23.03
2019-01-31T02:34:37.437Z,20.77
2019-01-31T02:40:02.908Z,22.33
2019-01-31T02:45:17.209Z,22.90
2019-01-31T02:50:19.955Z,20.30
2019-01-31T02:55:39.058Z,19.53
2019-01-31T03:01:05.865Z,20.80
2019-01-31T03:06:11.336Z,20.60
2019-01-31T03:11:17.156Z,21.20
2019-01-31T03:16:22.426Z,23.47
2019-01-31T03:21:34.318Z,21.50
2019-01-31T03:26:43.271Z,21.23
2019-01-31T03:32:01.148Z,22.07
2019-01-31T03:37:23.834Z,21.40
2019-01-31T03:42:55.615Z,21.57
2019-01-31T03:48:13.433Z,24.30
2019-01-31T03:53:18.936Z,24.10
2019-01-31T03:58:21.885Z,22.00
2019-01-31T04:03:33.703Z,20.07
2019-01-31T04:08:29.553Z,22.00
2019-01-31T04:13:25.438Z,18.93
2019-01-31T04:18:21.337Z,18.03
2019-01-31T04:23:17.213Z,19.67
2019-01-31T04:28:13.130Z,18.30
2019-01-31T04:33:09.030Z,19.97
2019-01-31T04:38:05.017Z,19.00
2019-01-31T04:43:00.900Z,19.77
2019-01-31T04:47:56.836Z,18.20
2019-01-31T04:52:52.698Z,19.97
2019-01-31T04:57:48.627Z,18.20
2019-01-31T05:02:44.607Z,19.23
2019-01-31T05:07:40.500Z,19.40
2019-01-31T05:12:36.509Z,20.00
2019-01-31T05:17:32.405Z,18.97
2019-01-31T05:22:28.321Z,18.77
2019-01-31T05:27:24.203Z,19.80
2019-01-31T05:32:20.085Z,20.00
2019-01-31T05:37:16.072Z,19.40
2019-01-31T05:42:11.956Z,19.20
2019-01-31T05:47:07.848Z,20.40
2019-01-31T05:52:03.758Z,18.40
2019-01-31T05:56:59.629Z,17.43
2019-01-31T06:01:55.519Z,18.57
2019-01-31T06:06:51.378Z,16.90
2019-01-31T06:11:47.286Z,17.83
2019-01-31T06:16:43.185Z,18.40
2019-01-31T06:21:39.062Z,19.07
2019-01-31T06:26:36.135Z,16.60
2019-01-31T06:31:32.091Z,15.40
2019-01-31T06:36:27.977Z,15.50
2019-01-31T06:41:23.899Z,16.30
2019-01-31T06:46:19.880Z,15.53
2019-01-31T06:51:15.768Z,13.73
2019-01-31T06:56:11.678Z,14.97
2019-01-31T07:01:07.667Z,15.20
2019-01-31T07:06:03.649Z,15.97
2019-01-31T07:10:59.559Z,13.93
2019-01-31T07:15:55.456Z,13.53
2019-01-31T07:20:51.346Z,12.93
2019-01-31T07:25:47.229Z,15.00
2019-01-31T07:30:43.213Z,12.27
2019-01-31T07:35:39.096Z,14.30
2019-01-31T07:40:34.989Z,13.60
2019-01-31T07:45:31.275Z,13.00
2019-01-31T07:50:27.267Z,14.67
2019-01-31T07:55:23.300Z,14.40
2019-01-31T08:00:21.301Z,16.57
2019-01-31T08:05:18.994Z,14.13
2019-01-31T08:10:20.823Z,15.87
2019-01-31T08:15:18.121Z,14.77
2019-01-31T08:20:18.565Z,13.40
2019-01-31T08:25:22.109Z,13.83
2019-01-31T08:30:42.522Z,13.00
2019-01-31T08:35:38.425Z,13.17
2019-01-31T08:40:34.315Z,14.90
2019-01-31T08:45:30.209Z,14.57
2019-01-31T08:50:27.961Z,15.80
2019-01-31T08:55:24.308Z,14.27
2019-01-31T09:00:28.685Z,14.37
2019-01-31T09:05:24.541Z,12.30
2019-01-31T09:10:29.023Z,11.53
2019-01-31T09:15:25.319Z,12.70
2019-01-31T09:20:25.019Z,12.63
2019-01-31T09:25:24.729Z,12.40
2019-01-31T09:30:53.122Z,10.37
2019-01-31T09:35:58.830Z,10.27
2019-01-31T09:41:04.397Z,11.60
2019-01-31T09:46:04.156Z,11.37
2019-01-31T09:51:17.417Z,10.90
2019-01-31T09:56:54.146Z,11.10
2019-01-31T10:02:28.780Z,10.83
2019-01-31T10:07:46.860Z,10.00
2019-01-31T10:13:09.848Z,9.53
2019-01-31T10:18:42.630Z,9.70
2019-01-31T10:23:56.815Z,8.47
2019-01-31T10:29:22.652Z,9.00
2019-01-31T10:34:37.369Z,10.50
2019-01-31T10:39:39.935Z,10.20
2019-01-31T10:45:13.550Z,9.03
2019-01-31T10:50:30.870Z,9.67
2019-01-31T10:55:53.488Z,9.27
2019-01-31T11:01:05.213Z,8.60
2019-01-31T11:06:20.104Z,9.13
2019-01-31T11:11:41.004Z,8.17
2019-01-31T11:17:04.740Z,8.53
2019-01-31T11:22:07.252Z,8.53
2019-01-31T11:27:10.216Z,8.10
2019-01-31T11:32:31.444Z,7.50
2019-01-31T11:37:31.151Z,7.90
2019-01-31T11:42:39.964Z,7.40
2019-01-31T11:47:51.708Z,6.10
2019-01-31T11:53:06.154Z,6.77
2019-01-31T11:58:41.872Z,6.10
2019-01-31T12:03:37.769Z,5.97
2019-01-31T12:08:33.834Z,6.50
2019-01-31T12:13:29.805Z,6.00
2019-01-31T12:18:25.831Z,6.00
2019-01-31T12:23:22.764Z,5.87
2019-01-31T12:28:25.519Z,5.27
2019-01-31T12:33:24.007Z,5.20
2019-01-31T12:38:23.943Z,5.50
2019-01-31T12:43:35.044Z,4.27
2019-01-31T12:48:27.144Z,4.60
2019-01-31T12:53:25.981Z,4.43
2019-01-31T12:58:33.797Z,4.27
2019-01-31T13:03:32.054Z,4.30
2019-01-31T13:08:36.228Z,3.90
2019-01-31T13:13:45.957Z,3.77
2019-01-31T13:18:35.412Z,3.80
2019-01-31T13:23:34.556Z,4.27
2019-01-31T13:28:35.843Z,4.50
2019-01-31T13:33:34.364Z,5.80
2019-01-31T13:38:34.902Z,5.33
2019-01-31T13:43:36.211Z,4.90
2019-01-31T13:48:38.745Z,5.73
2019-01-31T13:53:36.340Z,5.43
2019-01-31T13:58:34.582Z,5.40
2019-01-31T14:03:36.350Z,5.30
2019-01-31T14:08:34.230Z,6.23
2019-01-31T14:13:32.579Z,4.83
2019-01-31T14:18:30.373Z,4.63
2019-01-31T14:28:50.652Z,5.37
2019-01-31T14:33:47.778Z,4.33
2019-01-31T14:38:45.466Z,4.33
2019-01-31T14:49:02.541Z,3.30
2019-01-31T14:54:02.909Z,4.43
2019-01-31T14:59:02.292Z,3.73
2019-01-31T15:04:02.199Z,3.43
2019-01-31T15:08:59.924Z,3.67
2019-01-31T15:13:59.172Z,3.50
2019-01-31T15:18:58.352Z,3.43
2019-01-31T15:23:59.663Z,2.90
2019-01-31T15:29:05.804Z,3.37
2019-01-31T15:34:09.274Z,2.53
2019-01-31T15:39:08.076Z,2.60
2019-01-31T15:44:10.784Z,3.20
2019-01-31T15:49:14.411Z,3.13
2019-01-31T15:54:14.953Z,3.40
2019-01-31T15:59:11.759Z,3.03
2019-01-31T16:04:13.131Z,3.30
2019-01-31T16:09:09.895Z,4.50
2019-01-31T16:14:09.419Z,3.90
2019-01-31T16:19:11.909Z,3.33
2019-01-31T16:24:11.351Z,3.33
2019-01-31T16:29:13.615Z,3.67
2019-01-31T16:34:11.916Z,3.10
2019-01-31T16:39:15.075Z,3.30
2019-01-31T16:44:18.408Z,3.90
2019-01-31T16:49:15.821Z,3.30
2019-01-31T16:54:13.158Z,3.87
2019-01-31T16:59:09.179Z,3.50
2019-01-31T17:04:05.259Z,4.17
2019-01-31T17:09:10.244Z,3.87
2019-01-31T17:14:11.190Z,3.73
2019-01-31T17:19:13.311Z,4.07
2019-01-31T17:24:11.433Z,4.47
2019-01-31T17:29:07.998Z,4.03
2019-01-31T17:34:03.932Z,4.20
2019-01-31T17:39:00.746Z,4.57
2019-01-31T17:43:57.797Z,4.10
2019-01-31T17:48:56.174Z,4.60
2019-01-31T17:53:54.342Z,4.30
2019-01-31T17:58:50.332Z,4.03
2019-01-31T18:03:46.279Z,4.40
2019-01-31T18:08:42.228Z,3.87
2019-01-31T18:13:38.248Z,4.60
2019-01-31T18:18:34.140Z,5.20
2019-01-31T18:23:31.863Z,4.77
2019-01-31T18:28:27.881Z,5.70
2019-01-31T18:33:23.778Z,5.67
2019-01-31T18:38:19.739Z,7.30
2019-01-31T18:43:15.848Z,5.70
2019-01-31T18:48:11.740Z,5.53
2019-01-31T18:53:07.829Z,5.53
2019-01-31T18:58:04.804Z,5.80
2019-01-31T19:03:00.800Z,5.33
2019-01-31T19:07:56.899Z,5.17
2019-01-31T19:12:52.924Z,5.30
2019-01-31T19:17:48.985Z,5.07
2019-01-31T19:22:45.140Z,4.80
2019-01-31T19:27:43.066Z,5.07
2019-01-31T19:32:39.349Z,5.03
2019-01-31T19:37:40.422Z,4.23
2019-01-31T19:42:38.274Z,4.20
2019-01-31T19:47:35.225Z,4.30
2019-01-31T19:52:31.490Z,4.97
2019-01-31T19:57:27.826Z,4.33
2019-01-31T20:02:24.011Z,4.77
2019-01-31T20:07:19.885Z,5.77
2019-01-31T20:12:15.906Z,5.93
2019-01-31T20:17:11.808Z,5.03
2019-01-31T20:22:07.954Z,5.47
2019-01-31T20:27:03.948Z,6.07
2019-01-31T20:32:00.519Z,6.90
2019-01-31T20:36:56.418Z,6.00
2019-01-31T20:41:54.296Z,5.90
2019-01-31T20:46:50.073Z,6.40
2019-01-31T20:51:45.977Z,6.77
2019-01-31T20:56:41.978Z,6.33
2019-01-31T21:01:38.661Z,6.73
2019-01-31T21:06:41.414Z,7.63
2019-01-31T21:11:32.577Z,6.70
2019-01-31T21:16:28.605Z,6.53
2019-01-31T21:21:24.464Z,6.37
2019-01-31T21:26:20.480Z,6.00
2019-01-31T21:31:16.376Z,6.87
2019-01-31T21:36:12.262Z,6.40
2019-01-31T21:41:08.201Z,6.83
2019-01-31T21:46:04.330Z,5.90
2019-01-31T21:51:04.087Z,6.30
2019-01-31T21:56:02.144Z,5.40
2019-01-31T22:01:14.969Z,5.13
2019-01-31T22:06:22.608Z,4.97
2019-01-31T22:11:24.530Z,4.33
2019-01-31T22:16:25.638Z,4.57
2019-01-31T22:21:29.199Z,4.83
2019-01-31T22:26:32.080Z,5.53
2019-01-31T22:31:33.604Z,4.80
2019-01-31T22:36:35.604Z,4.80
2019-01-31T22:41:56.770Z,5.40
2019-01-31T22:46:59.236Z,4.20
2019-01-31T22:51:55.221Z,4.50
2019-01-31T22:56:51.115Z,4.27
2019-01-31T23:01:51.257Z,4.43
2019-01-31T23:06:47.247Z,3.93
2019-01-31T23:11:43.261Z,3.43
2019-01-31T23:16:39.766Z,3.77
2019-01-31T23:21:35.747Z,3.30
2019-01-31T23:26:31.743Z,4.00
2019-01-31T23:31:27.625Z,3.17
2019-01-31T23:36:23.612Z,3.13
2019-01-31T23:41:19.600Z,3.23
2019-01-31T23:46:15.587Z,2.87
2019-01-31T23:51:11.481Z,2.90
2019-01-31T23:56:07.368Z,2.17
